createdAt,value
2022-08-27T00:00:45.545Z,76.89
2022-08-27T00:03:12.179Z,77.20
2022-08-27T00:05:38.898Z,77.46
2022-08-27T00:08:06.510Z,77.95
2022-08-27T00:10:33.909Z,78.24
2022-08-27T00:13:00.583Z,78.44
2022-08-27T00:15:27.944Z,78.67
2022-08-27T00:17:54.401Z,79.18
2022-08-27T00:20:23.503Z,79.33
2022-08-27T00:22:50.080Z,79.99
2022-08-27T00:25:16.593Z,80.09
2022-08-27T00:27:43.027Z,80.23
2022-08-27T00:30:15.913Z,80.86
2022-08-27T00:32:42.580Z,81.58
2022-08-27T00:35:09.576Z,81.83
2022-08-27T00:37:36.230Z,82.12
2022-08-27T00:40:04.929Z,82.42
2022-08-27T00:42:31.547Z,82.53
2022-08-27T00:44:59.270Z,82.34
2022-08-27T00:47:28.503Z,82.12
2022-08-27T00:50:01.779Z,81.92
2022-08-27T00:52:38.106Z,82.02
2022-08-27T00:55:09.334Z,82.20
2022-08-27T00:57:38.821Z,82.41
2022-08-27T01:00:08.316Z,82.42
2022-08-27T01:02:34.857Z,82.44
2022-08-27T01:05:08.874Z,82.16
2022-08-27T01:07:38.502Z,82.04
2022-08-27T01:10:12.298Z,81.84
2022-08-27T01:12:39.145Z,81.51
2022-08-27T01:15:10.064Z,81.22
2022-08-27T01:17:39.546Z,81.39
2022-08-27T01:20:09.442Z,81.53
2022-08-27T01:22:51.499Z,81.55
2022-08-27T01:25:18.640Z,81.39
2022-08-27T01:27:46.378Z,81.68
2022-08-27T01:30:16.399Z,81.84
2022-08-27T01:32:43.408Z,82.32
2022-08-27T01:35:11.570Z,82.56
2022-08-27T01:37:38.022Z,82.74
2022-08-27T01:40:06.449Z,82.73
2022-08-27T01:42:39.174Z,83.22
2022-08-27T01:45:09.183Z,82.78
2022-08-27T01:47:36.469Z,83.52
2022-08-27T01:50:09.813Z,83.49
2022-08-27T01:52:36.305Z,83.71
2022-08-27T01:55:02.868Z,83.78
2022-08-27T01:57:29.307Z,84.82
2022-08-27T01:59:57.481Z,84.77
2022-08-27T02:02:24.475Z,85.16
2022-08-27T02:04:51.709Z,85.03
2022-08-27T02:07:18.717Z,85.15
2022-08-27T02:09:45.313Z,85.20
2022-08-27T02:12:11.762Z,85.39
2022-08-27T02:14:38.277Z,85.54
2022-08-27T02:17:04.725Z,85.91
2022-08-27T02:19:31.382Z,86.06
2022-08-27T02:22:00.352Z,86.42
2022-08-27T02:24:30.122Z,86.37
2022-08-27T02:26:57.320Z,86.86
2022-08-27T02:29:24.371Z,87.04
2022-08-27T02:31:50.931Z,87.42
2022-08-27T02:34:18.105Z,87.72
2022-08-27T02:36:44.594Z,88.36
2022-08-27T02:39:11.066Z,88.77
2022-08-27T02:41:37.499Z,89.25
2022-08-27T02:44:10.183Z,89.42
2022-08-27T02:46:38.720Z,90.05
2022-08-27T02:49:05.448Z,89.88
2022-08-27T02:51:31.895Z,90.83
2022-08-27T02:53:58.396Z,91.59
2022-08-27T02:56:24.818Z,91.73
2022-08-27T02:58:51.245Z,92.01
2022-08-27T03:01:17.683Z,92.43
2022-08-27T03:03:44.140Z,92.41
2022-08-27T03:06:11.089Z,92.56
2022-08-27T03:08:52.612Z,93.39
2022-08-27T03:11:22.432Z,93.97
2022-08-27T03:13:48.944Z,94.79
2022-08-27T03:16:15.437Z,95.33
2022-08-27T03:18:41.922Z,96.21
2022-08-27T03:21:08.544Z,96.48
2022-08-27T03:23:35.489Z,96.93
2022-08-27T03:26:04.900Z,96.79
2022-08-27T03:28:34.351Z,97.03
2022-08-27T03:31:03.542Z,97.40
2022-08-27T03:33:32.958Z,98.00
2022-08-27T03:35:59.755Z,97.82
2022-08-27T03:38:26.242Z,98.02
2022-08-27T03:40:53.282Z,98.05
2022-08-27T03:43:22.069Z,98.76
2022-08-27T03:46:01.006Z,98.67
2022-08-27T03:48:29.915Z,99.88
2022-08-27T03:50:56.416Z,100.00
2022-08-27T03:53:22.849Z,100.00
2022-08-27T03:55:49.517Z,100.00
2022-08-27T03:58:17.914Z,99.86
2022-08-27T04:00:44.382Z,99.95
2022-08-27T04:03:13.096Z,99.60
2022-08-27T04:05:39.724Z,99.56
2022-08-27T04:08:06.927Z,100.00
2022-08-27T04:10:34.834Z,100.00
2022-08-27T04:13:01.801Z,100.00
2022-08-27T04:15:28.255Z,100.00
2022-08-27T04:17:54.700Z,100.00
2022-08-27T04:20:36.615Z,100.00
2022-08-27T04:23:03.862Z,100.00
2022-08-27T04:25:30.306Z,100.00
2022-08-27T04:27:56.914Z,100.00
2022-08-27T04:30:23.501Z,100.00
2022-08-27T04:32:50.603Z,100.00
2022-08-27T04:35:17.245Z,100.00
2022-08-27T04:37:43.718Z,100.00
2022-08-27T04:40:10.412Z,100.00
2022-08-27T04:42:37.007Z,100.00
2022-08-27T04:45:04.342Z,100.00
2022-08-27T04:47:31.050Z,100.00
2022-08-27T04:49:57.520Z,100.00
2022-08-27T04:52:24.843Z,100.00
2022-08-27T04:54:51.534Z,100.00
2022-08-27T04:57:18.107Z,100.00
2022-08-27T04:59:44.691Z,100.00
2022-08-27T05:02:11.187Z,100.00
2022-08-27T05:04:40.032Z,100.00
2022-08-27T05:07:08.361Z,100.00
2022-08-27T05:09:34.984Z,100.00
2022-08-27T05:12:01.675Z,100.00
2022-08-27T05:14:32.601Z,100.00
2022-08-27T05:16:59.724Z,100.00
2022-08-27T05:19:27.565Z,100.00
2022-08-27T05:21:54.167Z,100.00
2022-08-27T05:24:20.976Z,100.00
2022-08-27T05:26:47.809Z,100.00
2022-08-27T05:29:14.654Z,100.00
2022-08-27T05:31:42.488Z,100.00
2022-08-27T05:34:10.640Z,100.00
2022-08-27T05:36:48.502Z,100.00
2022-08-27T05:39:16.436Z,100.00
2022-08-27T05:41:43.086Z,100.00
2022-08-27T05:46:56.773Z,100.00
2022-08-27T05:49:23.286Z,100.00
2022-08-27T05:51:49.745Z,100.00
2022-08-27T05:54:19.244Z,100.00
2022-08-27T05:56:46.021Z,100.00
2022-08-27T05:59:34.806Z,100.00
2022-08-27T06:02:01.920Z,100.00
2022-08-27T06:04:28.387Z,100.00
2022-08-27T06:06:54.821Z,100.00
2022-08-27T06:09:23.896Z,100.00
2022-08-27T06:11:50.477Z,100.00
2022-08-27T06:14:16.996Z,100.00
2022-08-27T06:16:56.911Z,100.00
2022-08-27T06:19:23.931Z,100.00
2022-08-27T06:22:00.694Z,100.00
2022-08-27T06:24:28.692Z,100.00
2022-08-27T06:26:57.394Z,100.00
2022-08-27T06:29:25.086Z,100.00
2022-08-27T06:31:52.581Z,100.00
2022-08-27T06:34:19.016Z,100.00
2022-08-27T06:36:45.450Z,100.00
2022-08-27T06:39:15.399Z,100.00
2022-08-27T06:41:43.684Z,100.00
2022-08-27T06:44:11.081Z,100.00
2022-08-27T06:46:38.630Z,100.00
2022-08-27T06:49:05.343Z,100.00
2022-08-27T06:51:34.049Z,100.00
2022-08-27T06:54:06.599Z,100.00
2022-08-27T06:56:33.265Z,100.00
2022-08-27T06:59:02.071Z,99.92
2022-08-27T07:01:31.293Z,98.74
2022-08-27T07:04:00.110Z,98.93
2022-08-27T07:06:29.277Z,98.49
2022-08-27T07:08:57.109Z,98.04
2022-08-27T07:11:24.263Z,97.77
2022-08-27T07:13:51.207Z,97.02
2022-08-27T07:16:19.876Z,97.11
2022-08-27T07:18:50.758Z,95.88
2022-08-27T07:21:20.030Z,95.34
2022-08-27T07:23:47.552Z,95.23
2022-08-27T07:26:15.135Z,95.09
2022-08-27T07:28:43.118Z,94.98
2022-08-27T07:31:13.778Z,96.00
2022-08-27T07:33:42.112Z,95.95
2022-08-27T07:36:17.869Z,95.35
2022-08-27T07:38:44.320Z,94.27
2022-08-27T07:41:16.866Z,93.78
2022-08-27T07:44:01.908Z,92.72
2022-08-27T07:46:28.565Z,91.91
2022-08-27T07:48:56.470Z,90.28
2022-08-27T07:51:24.614Z,89.02
2022-08-27T07:53:51.463Z,87.61
2022-08-27T07:56:18.724Z,87.37
2022-08-27T07:58:45.314Z,86.12
2022-08-27T08:01:11.788Z,85.13
2022-08-27T08:03:38.267Z,83.91
2022-08-27T08:06:07.886Z,83.40
2022-08-27T08:08:35.576Z,83.48
2022-08-27T08:11:06.055Z,83.45
2022-08-27T08:13:32.558Z,82.78
2022-08-27T08:15:59.265Z,82.79
2022-08-27T08:18:26.703Z,81.99
2022-08-27T08:20:58.501Z,82.90
2022-08-27T08:23:25.377Z,81.53
2022-08-27T08:25:51.843Z,81.15
2022-08-27T08:28:18.284Z,80.54
2022-08-27T08:30:44.745Z,79.74
2022-08-27T08:33:13.352Z,79.86
2022-08-27T08:35:41.313Z,79.37
2022-08-27T08:38:08.298Z,78.44
2022-08-27T08:40:39.092Z,78.53
2022-08-27T08:43:07.718Z,78.06
2022-08-27T08:45:37.711Z,78.24
2022-08-27T08:48:20.087Z,79.08
2022-08-27T08:51:02.082Z,80.70
2022-08-27T08:53:46.027Z,80.07
2022-08-27T08:56:18.559Z,80.77
2022-08-27T08:58:53.023Z,80.56
2022-08-27T09:01:20.899Z,80.14
2022-08-27T09:03:59.125Z,79.98
2022-08-27T09:06:40.124Z,79.46
2022-08-27T09:09:33.568Z,79.22
2022-08-27T09:12:24.839Z,78.65
2022-08-27T09:14:58.540Z,78.11
2022-08-27T09:17:25.667Z,77.05
2022-08-27T09:19:52.511Z,76.89
2022-08-27T09:22:30.009Z,77.72
2022-08-27T09:25:22.497Z,78.09
2022-08-27T09:27:54.224Z,79.11
2022-08-27T09:30:29.910Z,80.07
2022-08-27T09:33:00.375Z,79.94
2022-08-27T09:35:29.068Z,79.71
2022-08-27T09:37:56.284Z,79.09
2022-08-27T09:40:33.173Z,79.50
2022-08-27T09:43:08.870Z,79.86
2022-08-27T09:45:35.879Z,79.75
2022-08-27T09:48:15.064Z,80.02
2022-08-27T09:50:48.463Z,80.12
2022-08-27T09:53:27.008Z,79.33
2022-08-27T09:55:59.340Z,78.84
2022-08-27T09:58:32.212Z,78.72
2022-08-27T10:01:07.546Z,78.16
2022-08-27T10:03:34.237Z,77.58
2022-08-27T10:06:00.993Z,76.98
2022-08-27T10:08:46.474Z,77.84
2022-08-27T10:11:38.257Z,78.65
2022-08-27T10:14:25.959Z,79.81
2022-08-27T10:17:04.858Z,79.94
2022-08-27T10:19:44.758Z,80.10
2022-08-27T10:22:17.588Z,80.88
2022-08-27T10:25:15.569Z,81.03
2022-08-27T10:28:04.946Z,80.59
2022-08-27T10:30:51.619Z,79.64
2022-08-27T10:33:41.397Z,78.70
2022-08-27T10:36:29.160Z,76.77
2022-08-27T10:39:03.755Z,75.44
2022-08-27T10:41:35.093Z,74.81
2022-08-27T10:44:25.881Z,75.62
2022-08-27T10:47:19.772Z,72.13
2022-08-27T10:50:08.984Z,72.14
2022-08-27T10:52:42.001Z,71.61
2022-08-27T10:55:31.154Z,70.70
2022-08-27T10:58:43.149Z,69.74
2022-08-27T11:03:46.093Z,68.72
2022-08-27T11:06:26.285Z,67.65
2022-08-27T11:09:07.715Z,67.48
2022-08-27T11:14:30.815Z,67.11
2022-08-27T11:17:04.639Z,66.32
2022-08-27T11:19:54.334Z,65.53
2022-08-27T11:22:26.229Z,65.97
2022-08-27T11:25:13.383Z,65.45
2022-08-27T11:27:40.781Z,64.58
2022-08-27T11:30:12.024Z,63.56
2022-08-27T11:32:58.600Z,62.80
2022-08-27T11:35:59.746Z,63.17
2022-08-27T11:38:59.680Z,63.88
2022-08-27T11:42:00.566Z,64.61
2022-08-27T11:44:27.217Z,64.80
2022-08-27T11:47:08.141Z,64.73
2022-08-27T11:49:48.098Z,64.56
2022-08-27T11:52:41.484Z,64.98
2022-08-27T11:55:19.900Z,64.84
2022-08-27T11:57:48.229Z,65.44
2022-08-27T12:00:30.518Z,64.95
2022-08-27T12:03:00.066Z,64.97
2022-08-27T12:05:36.454Z,64.73
2022-08-27T12:08:33.128Z,63.98
2022-08-27T12:11:36.926Z,64.50
2022-08-27T12:14:40.826Z,64.33
2022-08-27T12:17:14.230Z,63.04
2022-08-27T12:20:06.210Z,63.41
2022-08-27T12:23:00.962Z,63.50
2022-08-27T12:25:27.566Z,63.38
2022-08-27T12:27:59.719Z,63.24
2022-08-27T12:30:32.270Z,63.32
2022-08-27T12:33:04.416Z,63.42
2022-08-27T12:35:47.367Z,63.96
2022-08-27T12:38:46.311Z,63.09
2022-08-27T12:41:43.957Z,62.77
2022-08-27T12:44:31.656Z,63.23
2022-08-27T12:47:02.023Z,63.14
2022-08-27T12:49:38.515Z,61.77
2022-08-27T12:52:18.300Z,61.04
2022-08-27T12:55:04.383Z,61.75
2022-08-27T12:57:50.036Z,62.37
2022-08-27T13:00:19.679Z,62.59
2022-08-27T13:03:18.682Z,62.43
2022-08-27T13:05:49.480Z,62.03
2022-08-27T13:08:21.906Z,61.84
2022-08-27T13:10:49.377Z,61.83
2022-08-27T13:13:19.707Z,61.11
2022-08-27T13:15:52.686Z,60.86
2022-08-27T13:18:19.438Z,61.75
2022-08-27T13:20:51.500Z,62.67
2022-08-27T13:23:24.880Z,62.64
2022-08-27T13:26:06.687Z,62.98
2022-08-27T13:28:34.295Z,64.10
2022-08-27T13:31:01.448Z,63.50
2022-08-27T13:33:31.520Z,64.13
2022-08-27T13:35:58.894Z,64.91
2022-08-27T13:38:28.111Z,64.95
2022-08-27T13:41:08.760Z,64.76
2022-08-27T13:43:38.390Z,65.14
2022-08-27T13:46:07.500Z,64.91
2022-08-27T13:48:34.033Z,64.84
2022-08-27T13:51:00.495Z,65.06
2022-08-27T13:53:48.737Z,65.99
2022-08-27T13:56:28.037Z,66.75
2022-08-27T13:58:54.643Z,67.60
2022-08-27T14:01:28.408Z,68.04
2022-08-27T14:04:04.128Z,68.65
2022-08-27T14:06:46.143Z,68.64
2022-08-27T14:09:26.110Z,69.40
2022-08-27T14:12:28.806Z,69.78
2022-08-27T14:15:11.003Z,69.47
2022-08-27T14:17:38.238Z,69.64
2022-08-27T14:20:06.623Z,69.18
2022-08-27T14:22:35.804Z,70.54
2022-08-27T14:25:02.548Z,70.14
2022-08-27T14:27:29.116Z,69.71
2022-08-27T14:29:55.575Z,70.00
2022-08-27T14:32:22.045Z,69.93
2022-08-27T14:34:48.506Z,70.26
2022-08-27T14:37:15.438Z,70.79
2022-08-27T14:39:43.296Z,70.13
2022-08-27T14:42:11.797Z,69.92
2022-08-27T14:44:38.557Z,70.57
2022-08-27T14:47:09.429Z,70.13
2022-08-27T14:49:39.237Z,70.46
2022-08-27T14:52:06.562Z,70.67
2022-08-27T14:54:33.765Z,70.96
2022-08-27T14:57:02.261Z,71.00
2022-08-27T14:59:29.226Z,70.81
2022-08-27T15:01:56.974Z,70.83
2022-08-27T15:04:24.807Z,70.91
2022-08-27T15:06:52.803Z,71.02
2022-08-27T15:09:19.477Z,70.70
2022-08-27T15:11:47.452Z,70.94
2022-08-27T15:14:34.227Z,71.68
2022-08-27T15:17:01.197Z,71.92
2022-08-27T15:19:29.026Z,72.56
2022-08-27T15:22:16.737Z,72.76
2022-08-27T15:24:46.889Z,73.07
2022-08-27T15:27:13.552Z,72.83
2022-08-27T15:29:40.664Z,73.36
2022-08-27T15:32:10.209Z,73.40
2022-08-27T15:34:37.092Z,73.28
2022-08-27T15:37:03.884Z,73.73
2022-08-27T15:39:30.332Z,73.34
2022-08-27T15:42:06.971Z,73.36
2022-08-27T15:44:34.613Z,73.46
2022-08-27T15:47:01.383Z,73.03
2022-08-27T15:49:27.888Z,73.54
2022-08-27T15:51:55.331Z,73.43
2022-08-27T15:54:25.935Z,73.89
2022-08-27T15:56:52.372Z,73.36
2022-08-27T15:59:18.886Z,73.70
2022-08-27T16:01:45.476Z,73.53
2022-08-27T16:04:12.069Z,73.14
2022-08-27T16:06:38.682Z,73.16
2022-08-27T16:09:05.638Z,72.81
2022-08-27T16:11:32.458Z,73.04
2022-08-27T16:13:59.025Z,72.87
2022-08-27T16:16:28.464Z,72.81
2022-08-27T16:18:55.048Z,72.68
2022-08-27T16:21:21.550Z,72.82
2022-08-27T16:23:50.569Z,73.24
2022-08-27T16:26:17.021Z,73.00
2022-08-27T16:28:44.366Z,73.15
2022-08-27T16:31:13.288Z,73.06
2022-08-27T16:33:41.908Z,73.24
2022-08-27T16:36:08.807Z,73.07
2022-08-27T16:38:36.065Z,73.36
2022-08-27T16:41:03.577Z,73.53
2022-08-27T16:43:30.037Z,73.58
2022-08-27T16:45:59.214Z,73.23
2022-08-27T16:48:44.935Z,73.04
2022-08-27T16:51:18.125Z,72.36
2022-08-27T16:53:44.882Z,73.12
2022-08-27T16:56:11.364Z,73.65
2022-08-27T16:58:40.438Z,73.62
2022-08-27T17:01:08.699Z,73.43
2022-08-27T17:04:07.457Z,73.40
2022-08-27T17:06:31.853Z,73.24
2022-08-27T17:08:59.490Z,73.42
2022-08-27T17:11:27.829Z,73.56
2022-08-27T17:13:57.133Z,73.48
2022-08-27T17:16:25.585Z,73.69
2022-08-27T17:18:52.372Z,74.04
2022-08-27T17:21:20.465Z,74.06
2022-08-27T17:23:49.215Z,74.12
2022-08-27T17:26:16.758Z,73.81
2022-08-27T17:28:44.043Z,73.91
2022-08-27T17:31:12.840Z,74.08
2022-08-27T17:33:42.578Z,74.26
2022-08-27T17:36:10.108Z,74.65
2022-08-27T17:38:38.749Z,74.36
2022-08-27T17:41:25.490Z,74.18
2022-08-27T17:43:52.102Z,74.07
2022-08-27T17:46:18.868Z,74.25
2022-08-27T17:48:45.340Z,74.15
2022-08-27T17:51:12.597Z,74.71
2022-08-27T17:53:44.892Z,74.90
2022-08-27T17:56:11.325Z,75.00
2022-08-27T17:58:37.758Z,75.33
2022-08-27T18:01:04.972Z,75.32
2022-08-27T18:03:44.307Z,75.55
2022-08-27T18:06:14.912Z,75.42
2022-08-27T18:08:41.435Z,75.30
2022-08-27T18:11:11.072Z,75.13
2022-08-27T18:13:37.898Z,74.68
2022-08-27T18:16:05.014Z,74.54
2022-08-27T18:18:32.199Z,74.39
2022-08-27T18:20:58.651Z,74.51
2022-08-27T18:23:25.208Z,74.14
2022-08-27T18:25:52.001Z,74.01
2022-08-27T18:28:19.331Z,73.75
2022-08-27T18:30:46.563Z,73.93
2022-08-27T18:33:14.078Z,74.30
2022-08-27T18:35:41.380Z,74.21
2022-08-27T18:38:08.229Z,74.57
2022-08-27T18:40:38.101Z,74.51
2022-08-27T18:43:05.129Z,74.88
2022-08-27T18:45:33.189Z,75.23
2022-08-27T18:48:00.148Z,75.42
2022-08-27T18:50:27.118Z,75.13
2022-08-27T18:52:55.204Z,74.97
2022-08-27T18:55:25.600Z,75.18
2022-08-27T18:57:52.098Z,74.70
2022-08-27T19:00:19.852Z,74.61
2022-08-27T19:02:51.884Z,74.17
2022-08-27T19:05:21.152Z,74.00
2022-08-27T19:07:47.600Z,73.96
2022-08-27T19:10:15.510Z,73.79
2022-08-27T19:12:41.977Z,73.44
2022-08-27T19:15:11.414Z,73.70
2022-08-27T19:17:38.443Z,73.57
2022-08-27T19:20:06.451Z,73.44
2022-08-27T19:22:33.041Z,73.20
2022-08-27T19:25:00.026Z,73.21
2022-08-27T19:27:27.910Z,72.97
2022-08-27T19:29:54.387Z,72.79
2022-08-27T19:32:21.136Z,72.98
2022-08-27T19:34:47.654Z,72.96
2022-08-27T19:37:21.473Z,72.73
2022-08-27T19:39:47.906Z,72.76
2022-08-27T19:42:14.487Z,72.93
2022-08-27T19:44:41.080Z,73.01
2022-08-27T19:47:09.220Z,73.16
2022-08-27T19:49:36.195Z,73.39
2022-08-27T19:52:06.190Z,73.42
2022-08-27T19:54:37.623Z,73.65
2022-08-27T19:57:13.675Z,73.94
2022-08-27T19:59:40.125Z,73.87
2022-08-27T20:02:08.917Z,74.31
2022-08-27T20:04:44.641Z,74.42
2022-08-27T20:07:18.475Z,74.45
2022-08-27T20:09:45.142Z,74.72
2022-08-27T20:12:13.883Z,74.70
2022-08-27T20:14:41.184Z,74.70
2022-08-27T20:17:08.529Z,74.60
2022-08-27T20:19:35.943Z,74.44
2022-08-27T20:22:02.514Z,74.74
2022-08-27T20:24:28.951Z,74.71
2022-08-27T20:26:56.844Z,74.63
2022-08-27T20:29:32.579Z,74.70
2022-08-27T20:31:59.453Z,74.89
2022-08-27T20:34:25.951Z,74.78
2022-08-27T20:36:55.983Z,74.96
2022-08-27T20:39:22.451Z,75.06
2022-08-27T20:41:48.899Z,74.92
2022-08-27T20:44:16.964Z,75.22
2022-08-27T20:46:43.446Z,75.37
2022-08-27T20:49:17.563Z,75.18
2022-08-27T20:51:51.532Z,75.26
2022-08-27T20:54:29.002Z,75.17
2022-08-27T20:56:55.456Z,74.73
2022-08-27T20:59:40.395Z,74.78
2022-08-27T21:02:09.366Z,74.92
2022-08-27T21:04:40.851Z,75.09
2022-08-27T21:07:07.386Z,74.67
2022-08-27T21:09:34.093Z,74.85
2022-08-27T21:12:00.522Z,74.65
2022-08-27T21:14:27.793Z,74.88
2022-08-27T21:16:54.614Z,74.89
2022-08-27T21:19:21.301Z,74.83
2022-08-27T21:21:47.725Z,74.93
2022-08-27T21:24:14.189Z,74.37
2022-08-27T21:26:41.142Z,74.27
2022-08-27T21:29:07.601Z,74.32
2022-08-27T21:31:34.128Z,74.25
2022-08-27T21:34:00.813Z,74.15
2022-08-27T21:36:27.245Z,74.32
2022-08-27T21:38:53.694Z,74.17
2022-08-27T21:41:20.423Z,74.14
2022-08-27T21:43:47.004Z,74.17
2022-08-27T21:46:13.508Z,74.21
2022-08-27T21:48:40.010Z,74.27
2022-08-27T21:51:10.070Z,74.14
2022-08-27T21:53:36.869Z,73.72
2022-08-27T21:56:03.575Z,73.21
2022-08-27T21:58:30.075Z,73.47
2022-08-27T22:00:56.561Z,73.45
2022-08-27T22:03:24.408Z,73.20
2022-08-27T22:05:51.156Z,73.08
2022-08-27T22:08:19.717Z,73.18
2022-08-27T22:10:48.489Z,73.57
2022-08-27T22:13:14.986Z,73.71
2022-08-27T22:15:41.553Z,74.03
2022-08-27T22:18:08.310Z,74.07
2022-08-27T22:20:35.361Z,74.44
2022-08-27T22:23:02.102Z,74.13
2022-08-27T22:25:28.628Z,74.36
2022-08-27T22:27:55.306Z,73.91
2022-08-27T22:30:21.874Z,73.89
2022-08-27T22:32:48.356Z,73.80
2022-08-27T22:35:15.985Z,73.50
2022-08-27T22:37:42.977Z,72.31
2022-08-27T22:40:19.313Z,72.31
2022-08-27T22:42:46.737Z,71.42
2022-08-27T22:45:13.202Z,70.73
2022-08-27T22:47:39.635Z,70.61
2022-08-27T22:50:07.208Z,70.40
2022-08-27T22:52:33.692Z,69.28
2022-08-27T22:55:00.164Z,69.88
2022-08-27T22:57:26.760Z,70.19
2022-08-27T22:59:53.210Z,70.83
2022-08-27T23:02:19.830Z,70.93
2022-08-27T23:04:54.957Z,71.09
2022-08-27T23:07:22.485Z,71.09
2022-08-27T23:09:48.924Z,70.97
2022-08-27T23:12:15.535Z,70.71
2022-08-27T23:14:42.000Z,70.99
2022-08-27T23:17:08.486Z,70.70
2022-08-27T23:19:34.935Z,70.41
2022-08-27T23:22:01.394Z,70.13
2022-08-27T23:24:33.034Z,70.11
2022-08-27T23:27:18.076Z,69.54
2022-08-27T23:29:45.588Z,69.08
2022-08-27T23:32:12.078Z,68.77
2022-08-27T23:34:38.493Z,68.35
2022-08-27T23:37:04.963Z,68.03
2022-08-27T23:39:31.433Z,67.88
2022-08-27T23:41:57.880Z,68.03
2022-08-27T23:44:28.381Z,67.82
2022-08-27T23:46:54.998Z,67.68
2022-08-27T23:49:21.475Z,67.78
2022-08-27T23:51:47.915Z,67.46
2022-08-27T23:54:14.347Z,67.23
2022-08-27T23:56:40.938Z,67.34
2022-08-27T23:59:07.385Z,67.56
